Time;durP1;ratioP1;P1;durP2;ratioP2;P2;SDS_P1;SDS_P2;PMS_P1;PMS_P2;Temp;Humidity;BMP_temperature;BMP_pressure;BME280_temperature;BME280_humidity;BME280_pressure;Samples;Min_cycle;Max_cycle;Signal;HPM_P1;HPM_P2
2023/01/25 10:30:56;;;;;;;136.00;32.10;;;;;;;0.24;100.00;103493.78;5018206;23;20066;-91
2023/01/25 10:33:26;;;;;;;135.90;34.53;;;;;;;0.11;100.00;103473.41;4897168;29;20110;-92
2023/01/25 10:35:56;;;;;;;131.27;33.90;;;;;;;0.26;100.00;103489.66;4933098;29;20039;-92
2023/01/25 10:38:41;;;;;;;138.65;34.03;;;;;;;0.16;100.00;103456.72;4946562;29;20035;-93
2023/01/25 10:41:35;;;;;;;137.00;35.58;;;;;;;0.20;100.00;103456.13;4938157;29;20432;-93
2023/01/25 10:46:52;;;;;;;129.05;33.28;;;;;;;0.24;100.00;103440.22;4948466;29;20054;-93
2023/01/25 10:49:29;;;;;;;136.32;34.70;;;;;;;0.28;100.00;103435.38;4946673;29;20074;-93
2023/01/25 10:51:55;;;;;;;130.35;32.60;;;;;;;0.35;100.00;103437.50;4934042;29;20031;-92
2023/01/25 10:54:29;;;;;;;136.73;34.90;;;;;;;0.25;100.00;103424.13;4947880;28;20031;-92
2023/01/25 10:57:00;;;;;;;134.57;34.75;;;;;;;0.24;100.00;103422.34;4946330;28;20074;-93
2023/01/25 10:59:31;;;;;;;139.57;35.72;;;;;;;0.20;100.00;103410.22;4945853;29;20500;-93
2023/01/25 11:02:25;;;;;;;131.98;33.85;;;;;;;0.31;100.00;103411.72;4952382;28;20043;-92
2023/01/25 11:04:51;;;;;;;132.70;34.13;;;;;;;0.37;100.00;103412.09;4936647;28;20546;-90
2023/01/25 11:07:27;;;;;;;136.77;33.47;;;;;;;0.38;100.00;103403.66;4946960;28;20537;-92
2023/01/25 11:09:59;;;;;;;132.02;32.95;;;;;;;0.37;100.00;103402.78;4951772;29;20565;-96
2023/01/25 11:12:28;;;;;;;126.68;31.23;;;;;;;0.44;100.00;103406.56;4956441;29;20042;-96
2023/01/25 11:15:26;;;;;;;123.05;30.60;;;;;;;0.46;100.00;103402.44;4957441;29;20042;-96
2023/01/25 11:18:20;;;;;;;128.73;31.45;;;;;;;0.34;100.00;103371.13;4976657;28;20091;-96
2023/01/25 11:21:13;;;;;;;132.48;32.55;;;;;;;0.36;100.00;103366.97;4969982;28;20066;-96
2023/01/25 11:23:41;;;;;;;120.18;32.05;;;;;;;0.38;100.00;103362.84;4961223;28;20082;-96
2023/01/25 11:26:20;;;;;;;;;;;;;;;;;;;;;
2023/01/25 11:29:23;;;;;;;127.43;31.33;;;;;;;0.56;100.00;103371.53;4964056;28;20193;-96
2023/01/25 11:32:13;;;;;;;129.95;32.90;;;;;;;0.36;100.00;103344.00;4967253;28;20059;-96
2023/01/25 11:34:45;;;;;;;126.35;32.40;;;;;;;0.39;100.00;103337.44;4963770;28;20071;-96
2023/01/25 11:37:35;;;;;;;126.15;32.42;;;;;;;0.41;100.00;103321.34;4959212;29;20039;-96
2023/01/25 11:40:26;;;;;;;122.75;31.00;;;;;;;0.62;100.00;103348.03;4974870;28;20043;-96
2023/01/25 11:43:25;;;;;;;118.03;30.35;;;;;;;0.46;100.00;103328.44;4970964;28;20388;-96
2023/01/25 11:46:38;;;;;;;127.32;32.05;;;;;;;0.62;99.74;103345.50;4970609;29;20050;-96
2023/01/25 11:49:43;;;;;;;115.43;29.80;;;;;;;0.62;100.00;103337.84;4955493;29;20037;-96
2023/01/25 11:53:00;;;;;;;120.45;31.42;;;;;;;0.53;97.98;103333.13;4970461;28;20035;-96
2023/01/25 11:56:00;;;;;;;114.85;28.27;;;;;;;0.47;100.00;103322.56;4974632;28;20050;-96
2023/01/25 11:58:41;;;;;;;122.63;30.85;;;;;;;0.45;100.00;103303.72;4968602;29;20511;-96
2023/01/25 12:01:31;;;;;;;123.57;31.35;;;;;;;0.37;100.00;103282.00;4973017;28;20059;-95
2023/01/25 12:04:44;;;;;;;113.22;30.02;;;;;;;0.49;99.31;103304.75;4949051;29;20067;-96
2023/01/25 12:07:35;;;;;;;122.32;31.05;;;;;;;0.33;100.00;103267.31;4896934;29;20072;-96
2023/01/25 12:10:32;;;;;;;133.05;34.50;;;;;;;0.50;99.89;103283.56;4886301;29;20036;-96
2023/01/25 12:13:51;;;;;;;;;;;;;;;;;;;;;
2023/01/25 12:16:45;;;;;;;118.10;30.40;;;;;;;0.45;100.00;103252.69;4965394;29;20046;-96
2023/01/25 12:19:42;;;;;;;117.80;30.00;;;;;;;0.51;100.00;103253.03;4969733;28;20039;-96
2023/01/25 12:22:44;;;;;;;117.47;29.42;;;;;;;0.51;99.92;103250.50;4979393;28;20130;-95
2023/01/25 12:25:38;;;;;;;119.60;31.52;;;;;;;0.36;99.95;103216.47;4952142;29;20035;-96
2023/01/25 12:28:27;;;;;;;118.25;31.13;;;;;;;0.50;99.06;103235.09;4965774;23;20058;-89
2023/01/25 12:31:15;;;;;;;117.65;29.77;;;;;;;0.52;99.61;103236.06;4980824;28;20068;-90
2023/01/25 12:33:51;;;;;;;124.28;30.48;;;;;;;0.48;99.52;103221.38;4981322;28;20065;-86
2023/01/25 12:36:35;;;;;;;115.07;29.75;;;;;;;0.53;100.00;103214.88;4979308;28;20050;-85
2023/01/25 12:39:23;;;;;;;115.05;30.25;;;;;;;0.52;99.83;103218.19;4982428;28;20050;-87
2023/01/25 12:42:19;;;;;;;109.05;29.38;;;;;;;0.54;99.32;103209.84;4980529;28;20084;-86
2023/01/25 12:45:01;;;;;;;119.35;28.45;;;;;;;0.53;99.28;103200.44;4981820;28;20056;-86
2023/01/25 12:47:39;;;;;;;106.28;28.00;;;;;;;0.52;98.33;103191.03;4981778;28;20393;-85
2023/01/25 12:50:19;;;;;;;110.05;28.67;;;;;;;0.51;98.92;103185.81;4980814;28;20074;-86
2023/01/25 12:53:06;;;;;;;112.68;30.60;;;;;;;0.48;98.44;103181.41;4980861;28;20046;-85
2023/01/25 12:55:32;;;;;;;104.30;27.83;;;;;;;0.51;98.30;103175.63;4953554;28;20046;-85
2023/01/25 12:58:06;;;;;;;110.30;27.98;;;;;;;0.46;98.90;103167.72;4982787;28;20042;-86
2023/01/25 13:01:07;;;;;;;114.70;29.38;;;;;;;0.45;100.00;103158.31;4979576;28;20057;-85
2023/01/25 13:03:40;;;;;;;118.32;30.02;;;;;;;0.45;98.16;103165.09;4980159;28;20043;-86
2023/01/25 13:06:14;;;;;;;113.05;28.92;;;;;;;0.39;97.71;103163.97;4979887;28;20512;-85
2023/01/25 13:09:03;;;;;;;110.20;29.88;;;;;;;0.35;98.32;103163.69;4979982;28;20377;-84
2023/01/25 13:11:32;;;;;;;108.45;28.85;;;;;;;0.31;99.28;103164.31;4980490;28;21123;-83
2023/01/25 13:14:15;;;;;;;113.63;27.92;;;;;;;0.30;99.65;103154.91;4980470;28;20041;-85
2023/01/25 13:16:53;;;;;;;107.80;29.52;;;;;;;0.28;99.30;103151.38;4980002;28;20420;-85
2023/01/25 13:19:40;;;;;;;112.78;29.17;;;;;;;0.29;99.80;103135.28;4980973;28;20035;-84
2023/01/25 13:22:10;;;;;;;112.03;28.95;;;;;;;0.31;99.52;103131.16;4980977;28;20026;-85
2023/01/25 13:25:07;;;;;;;115.75;29.23;;;;;;;0.35;100.00;103141.63;4981874;28;20190;-83
2023/01/25 13:27:35;;;;;;;118.25;29.63;;;;;;;0.33;99.54;103135.56;4980757;28;20108;-83
2023/01/25 13:30:10;;;;;;;120.28;30.63;;;;;;;0.36;100.00;103133.16;4979202;28;20050;-83
2023/01/25 13:32:53;;;;;;;116.72;30.60;;;;;;;0.33;98.58;103138.13;4962198;28;20045;-83
2023/01/25 13:35:34;;;;;;;111.28;28.35;;;;;;;0.28;99.71;103121.66;4978493;28;20034;-85
2023/01/25 13:38:23;;;;;;;111.95;29.63;;;;;;;0.26;99.46;103107.09;4980821;28;20042;-85
2023/01/25 13:41:02;;;;;;;111.97;28.83;;;;;;;0.25;98.83;103102.78;4979922;28;20038;-84
2023/01/25 13:43:28;;;;;;;106.63;28.70;;;;;;;0.26;99.03;103110.53;4980041;28;20030;-84
2023/01/25 13:45:53;;;;;;;111.40;29.48;;;;;;;0.21;99.35;103106.81;4979190;28;20049;-84
2023/01/25 13:48:21;;;;;;;106.68;27.35;;;;;;;0.22;99.88;103113.69;4981025;28;20046;-84
2023/01/25 13:50:57;;;;;;;115.47;29.08;;;;;;;0.26;99.53;103107.09;4962214;28;20038;-84
2023/01/25 13:53:32;;;;;;;105.05;28.42;;;;;;;0.24;99.44;103103.56;4980664;28;20030;-84
2023/01/25 13:55:57;;;;;;;112.68;28.75;;;;;;;0.25;100.00;103102.78;4979982;28;20073;-84
2023/01/25 13:58:25;;;;;;;108.18;27.55;;;;;;;0.24;99.11;103094.25;4979863;28;20466;-84
2023/01/25 14:01:02;;;;;;;101.40;26.48;;;;;;;0.24;99.96;103093.38;4979114;28;20052;-84
2023/01/25 14:03:32;;;;;;;102.07;26.70;;;;;;;0.23;98.72;103096.72;4977525;28;20497;-84
2023/01/25 14:06:01;;;;;;;102.28;27.30;;;;;;;0.18;98.43;103093.91;4979377;28;20042;-84
2023/01/25 14:08:27;;;;;;;98.70;25.13;;;;;;;0.17;99.23;103098.94;4979210;28;20027;-84
2023/01/25 14:10:54;;;;;;;107.22;27.20;;;;;;;0.13;99.08;103099.56;4979560;28;20058;-84
2023/01/25 14:13:19;;;;;;;99.78;26.58;;;;;;;0.13;99.32;103103.00;4979058;28;20404;-84
2023/01/25 14:16:08;;;;;;;102.95;27.38;;;;;;;0.11;98.98;103096.94;4979392;28;20035;-84
2023/01/25 14:18:36;;;;;;;102.80;27.77;;;;;;;0.08;99.91;103104.41;4978985;28;20402;-84
2023/01/25 14:21:15;;;;;;;99.22;26.45;;;;;;;0.08;100.00;103106.94;4978985;28;20065;-84
2023/01/25 14:23:40;;;;;;;97.18;26.98;;;;;;;0.02;100.00;103096.41;4978492;28;20093;-85
2023/01/25 14:26:24;;;;;;;101.88;25.95;;;;;;;0.03;100.00;103095.63;4978797;28;20034;-84
2023/01/25 14:28:53;;;;;;;97.82;25.48;;;;;;;-0.01;99.74;103103.91;4978643;28;20081;-84
2023/01/25 14:31:21;;;;;;;99.97;25.33;;;;;;;-0.06;99.62;103095.97;4978295;28;20049;-84
2023/01/25 14:33:53;;;;;;;98.60;25.67;;;;;;;-0.07;99.93;103101.88;4978729;28;20499;-84
2023/01/25 14:36:20;;;;;;;97.18;25.42;;;;;;;-0.12;99.58;103089.66;4978495;28;20106;-84
2023/01/25 14:38:45;;;;;;;98.40;26.35;;;;;;;-0.20;99.58;103089.22;4978991;28;20914;-84
2023/01/25 14:41:26;;;;;;;97.57;25.63;;;;;;;-0.19;100.00;103091.00;4979722;28;20049;-84
2023/01/25 14:43:58;;;;;;;104.28;25.58;;;;;;;-0.18;100.00;103081.69;4978924;28;20408;-84
2023/01/25 14:46:26;;;;;;;102.30;25.77;;;;;;;-0.18;100.00;103081.69;4977319;28;20034;-84
2023/01/25 14:49:14;;;;;;;105.85;27.27;;;;;;;-0.25;99.43;103080.47;4977200;28;20532;-84
2023/01/25 14:51:47;;;;;;;103.43;25.90;;;;;;;-0.29;100.00;103073.44;4962250;28;20050;-84
2023/01/25 14:54:17;;;;;;;105.00;27.05;;;;;;;-0.35;100.00;103068.03;4978360;28;20089;-84
2023/01/25 14:56:48;;;;;;;102.45;25.40;;;;;;;-0.35;100.00;103069.69;4961215;28;20129;-84
2023/01/25 14:59:32;;;;;;;97.10;24.45;;;;;;;-0.37;100.00;103068.72;4978553;28;20085;-84
2023/01/25 15:02:18;;;;;;;104.60;26.77;;;;;;;-0.39;100.00;103060.97;4978184;28;20592;-84
2023/01/25 15:05:03;;;;;;;103.18;26.10;;;;;;;-0.40;100.00;103059.22;4978685;28;20545;-84
2023/01/25 15:07:48;;;;;;;105.55;26.67;;;;;;;-0.41;100.00;103067.69;4978721;28;20045;-84
2023/01/25 15:10:30;;;;;;;106.95;27.13;;;;;;;-0.46;100.00;103062.28;4976155;28;20042;-84
2023/01/25 15:13:16;;;;;;;106.55;25.98;;;;;;;-0.51;100.00;103057.75;4977895;28;20030;-84
2023/01/25 15:15:52;;;;;;;101.68;26.52;;;;;;;-0.56;100.00;103052.41;4977606;28;20089;-84
2023/01/25 15:18:49;;;;;;;104.88;26.35;;;;;;;-0.65;100.00;103039.13;4978690;28;20567;-84
2023/01/25 15:21:19;;;;;;;100.63;26.52;;;;;;;-0.67;100.00;103047.47;4969987;28;20042;-84
2023/01/25 15:23:48;;;;;;;103.20;25.83;;;;;;;-0.70;100.00;103058.38;4978446;28;20049;-84
2023/01/25 15:26:21;;;;;;;100.88;25.92;;;;;;;-0.74;100.00;103064.06;4978850;28;20042;-84
2023/01/25 15:28:47;;;;;;;94.38;24.45;;;;;;;-0.79;100.00;103068.00;4978075;28;20046;-84
2023/01/25 15:31:19;;;;;;;102.32;24.50;;;;;;;-0.84;100.00;103060.13;4976883;28;20105;-84
2023/01/25 15:33:44;;;;;;;103.82;26.02;;;;;;;-0.85;100.00;103050.72;4977793;28;20444;-84
2023/01/25 15:36:10;;;;;;;103.65;25.13;;;;;;;-0.86;100.00;103051.50;4978075;28;20556;-84
2023/01/25 15:38:36;;;;;;;108.90;25.27;;;;;;;-0.89;100.00;103038.59;4977578;28;20043;-84
2023/01/25 15:41:01;;;;;;;100.47;25.55;;;;;;;-0.88;100.00;103042.00;4977491;28;20050;-84
2023/01/25 15:43:27;;;;;;;106.35;26.73;;;;;;;-0.89;100.00;103048.75;4977775;28;20069;-84
2023/01/25 15:45:55;;;;;;;109.78;26.58;;;;;;;-0.89;100.00;103042.81;4978170;28;20046;-84
2023/01/25 15:48:36;;;;;;;108.30;25.92;;;;;;;-0.86;100.00;103051.50;4978497;28;20049;-84
2023/01/25 15:51:02;;;;;;;107.32;26.58;;;;;;;-0.87;100.00;103053.94;4961074;28;20098;-84
2023/01/25 15:53:28;;;;;;;108.43;26.20;;;;;;;-0.88;100.00;103044.56;4977568;28;20042;-84
2023/01/25 15:55:58;;;;;;;107.47;27.88;;;;;;;-0.88;100.00;103040.34;4978428;28;20038;-84
2023/01/25 15:58:31;;;;;;;111.95;26.30;;;;;;;-0.91;100.00;103036.75;4977409;28;20576;-84
2023/01/25 16:00:58;;;;;;;117.47;27.45;;;;;;;-0.92;100.00;103033.34;4961356;28;20046;-84
2023/01/25 16:03:24;;;;;;;105.07;26.70;;;;;;;-0.93;100.00;103029.03;4977464;28;20436;-84
2023/01/25 16:05:55;;;;;;;117.32;27.58;;;;;;;-0.94;100.00;103021.28;4960168;28;20531;-84
2023/01/25 16:08:20;;;;;;;113.68;26.75;;;;;;;-0.93;100.00;103017.97;4977920;28;20137;-84
2023/01/25 16:10:46;;;;;;;111.93;28.13;;;;;;;-0.91;100.00;103026.56;4977190;28;20129;-82
2023/01/25 16:13:11;;;;;;;118.32;28.58;;;;;;;-0.91;100.00;103026.56;4977429;28;20064;-83
2023/01/25 16:15:38;;;;;;;124.35;29.42;;;;;;;-0.94;100.00;103016.19;4977808;28;20035;-83
2023/01/25 16:18:03;;;;;;;118.05;28.67;;;;;;;-0.92;100.00;103023.16;4976357;28;21016;-83
2023/01/25 16:20:29;;;;;;;122.68;29.48;;;;;;;-0.93;100.00;103016.31;4960635;28;20046;-83
2023/01/25 16:22:54;;;;;;;127.30;29.30;;;;;;;-0.97;100.00;103009.28;4980936;28;20120;-83
2023/01/25 16:25:20;;;;;;;128.48;29.27;;;;;;;-0.98;100.00;103020.25;4981116;28;20047;-83
2023/01/25 16:27:47;;;;;;;132.05;31.85;;;;;;;-0.98;100.00;103025.34;4963912;28;20045;-83
2023/01/25 16:30:20;;;;;;;133.38;31.17;;;;;;;-1.01;100.00;103020.06;4980280;28;20062;-83
2023/01/25 16:32:48;;;;;;;123.77;28.30;;;;;;;-1.01;100.00;103026.81;4981249;28;20512;-83
2023/01/25 16:35:13;;;;;;;117.70;28.17;;;;;;;-1.02;100.00;103018.28;4980523;28;20038;-83
2023/01/25 16:37:38;;;;;;;127.63;30.92;;;;;;;-1.03;100.00;103019.13;4964460;28;20030;-86
2023/01/25 16:40:04;;;;;;;128.05;29.27;;;;;;;-1.03;100.00;103024.19;4979330;28;20058;-81
2023/01/25 16:42:30;;;;;;;120.68;29.10;;;;;;;-1.03;100.00;103020.78;4981280;28;20070;-81
2023/01/25 16:45:03;;;;;;;134.15;31.17;;;;;;;-1.12;100.00;103016.03;5042704;23;20067;-96
2023/01/25 16:47:37;;;;;;;140.60;32.22;;;;;;;-1.03;100.00;103047.09;5029046;28;20042;-96
2023/01/25 16:50:26;;;;;;;137.65;31.42;;;;;;;-1.20;100.00;103022.31;5033526;28;20041;-96
2023/01/25 16:53:17;;;;;;;143.70;31.58;;;;;;;-1.23;100.00;103022.16;5049823;28;20097;-96
2023/01/25 16:55:42;;;;;;;134.85;31.45;;;;;;;-1.16;100.00;103031.03;5050247;28;20041;-96
2023/01/25 16:58:08;;;;;;;136.25;29.63;;;;;;;-1.17;100.00;103031.81;5035497;28;20028;-96
2023/01/25 17:00:47;;;;;;;144.10;32.38;;;;;;;-1.25;100.00;103013.56;5033567;28;20033;-96
2023/01/25 17:03:12;;;;;;;141.65;32.08;;;;;;;-1.13;100.00;103024.44;5003295;23;20093;-87
2023/01/25 17:05:37;;;;;;;138.13;30.45;;;;;;;-1.11;100.00;103033.06;4987993;28;20444;-89
2023/01/25 17:08:03;;;;;;;136.60;30.65;;;;;;;-1.14;100.00;103022.69;4986963;28;20076;-89
2023/01/25 17:10:33;;;;;;;141.80;32.72;;;;;;;-1.14;100.00;103032.84;4986287;28;20045;-87
2023/01/25 17:12:58;;;;;;;150.52;34.13;;;;;;;-1.16;100.00;103028.47;4986259;28;20038;-87
2023/01/25 17:15:24;;;;;;;139.15;31.23;;;;;;;-1.17;100.00;103031.81;4988602;28;20038;-87
2023/01/25 17:17:49;;;;;;;139.73;30.77;;;;;;;-1.19;100.00;103021.53;4987832;28;20022;-86
2023/01/25 17:20:15;;;;;;;135.82;31.98;;;;;;;-1.18;100.00;103014.78;4970652;28;20033;-81
2023/01/25 17:22:41;;;;;;;135.02;28.98;;;;;;;-1.24;100.00;103012.75;4988133;28;20097;-81
2023/01/25 17:25:07;;;;;;;140.98;29.27;;;;;;;-1.26;100.00;103011.78;4987892;28;20114;-82
2023/01/25 17:27:32;;;;;;;126.70;28.67;;;;;;;-1.31;100.00;103003.00;4987862;28;20065;-82
2023/01/25 17:29:57;;;;;;;142.48;31.75;;;;;;;-1.32;100.00;102996.16;4988363;28;20046;-82
2023/01/25 17:32:23;;;;;;;130.10;29.35;;;;;;;-1.34;100.00;102990.97;4969969;28;20066;-82
2023/01/25 17:34:48;;;;;;;133.50;29.50;;;;;;;-1.35;100.00;102983.25;4987702;28;20066;-82
2023/01/25 17:37:14;;;;;;;131.73;28.83;;;;;;;-1.38;100.00;102976.34;4987623;28;20081;-81
2023/01/25 17:39:39;;;;;;;133.38;28.52;;;;;;;-1.42;100.00;102973.50;4988266;28;20405;-81
2023/01/25 17:42:05;;;;;;;137.05;28.75;;;;;;;-1.38;100.00;102972.91;4970572;28;20089;-81
2023/01/25 17:44:31;;;;;;;126.50;29.77;;;;;;;-1.39;100.00;102966.06;4984863;28;20042;-82
2023/01/25 17:46:56;;;;;;;126.60;27.15;;;;;;;-1.42;100.00;102948.94;4976902;28;20037;-81
2023/01/25 17:49:23;;;;;;;131.77;28.63;;;;;;;-1.40;100.00;102933.78;4976975;28;20073;-84
2023/01/25 17:51:49;;;;;;;138.57;31.40;;;;;;;-1.42;100.00;102932.81;4977144;28;20034;-82
2023/01/25 17:54:14;;;;;;;133.27;28.95;;;;;;;-1.41;100.00;102929.50;4977322;28;20042;-82
2023/01/25 17:56:39;;;;;;;142.30;31.15;;;;;;;-1.40;100.00;102924.50;4976634;28;20062;-82
2023/01/25 17:59:07;;;;;;;139.93;29.58;;;;;;;-1.43;100.00;102909.03;4976151;28;20666;-82
2023/01/25 18:01:33;;;;;;;124.13;29.15;;;;;;;-1.37;100.00;102911.97;4977014;28;20065;-82
2023/01/25 18:03:59;;;;;;;136.13;28.45;;;;;;;-1.36;100.00;102913.69;4959928;28;20043;-82
2023/01/25 18:06:27;;;;;;;140.75;30.60;;;;;;;-1.34;100.00;102898.53;4976309;28;20039;-82
2023/01/25 18:08:55;;;;;;;134.60;29.75;;;;;;;-1.30;100.00;102908.13;4959885;28;20101;-83
2023/01/25 18:11:24;;;;;;;132.93;30.17;;;;;;;-1.30;100.00;102897.94;4977098;28;20043;-83
2023/01/25 18:13:53;;;;;;;129.73;28.23;;;;;;;-1.29;100.00;102884.41;4977237;28;20073;-83
2023/01/25 18:16:22;;;;;;;131.73;29.25;;;;;;;-1.32;100.00;102877.50;4959108;28;20069;-83
2023/01/25 18:18:49;;;;;;;126.95;28.08;;;;;;;-1.33;100.00;102872.31;4975688;28;20078;-83
2023/01/25 18:21:22;;;;;;;142.98;29.67;;;;;;;-1.34;100.00;102865.47;4976135;28;20599;-83
2023/01/25 18:23:49;;;;;;;138.93;28.15;;;;;;;-1.35;100.00;102862.03;4977212;28;20041;-82
2023/01/25 18:26:21;;;;;;;135.15;29.00;;;;;;;-1.34;100.00;102862.94;4976118;28;20173;-83
2023/01/25 18:28:46;;;;;;;142.68;30.95;;;;;;;-1.34;100.00;102852.75;4958057;28;20046;-83
2023/01/25 18:31:14;;;;;;;140.40;30.17;;;;;;;-1.35;100.00;102848.44;4975816;28;20100;-83
2023/01/25 18:33:39;;;;;;;144.63;29.35;;;;;;;-1.36;100.00;102839.06;4959047;28;20027;-83
2023/01/25 18:36:05;;;;;;;128.27;27.90;;;;;;;-1.35;100.00;102848.44;4975414;28;20042;-83
2023/01/25 18:38:31;;;;;;;142.50;30.38;;;;;;;-1.37;100.00;102858.56;4975449;28;20062;-83
2023/01/25 18:40:57;;;;;;;134.73;30.52;;;;;;;-1.38;100.00;102866.97;4976347;28;20050;-82
2023/01/25 18:43:23;;;;;;;118.53;27.35;;;;;;;-1.37;100.00;102867.84;4958588;28;20054;-82
2023/01/25 18:45:56;;;;;;;128.88;28.83;;;;;;;-1.36;100.00;102867.91;4975042;28;20440;-83
2023/01/25 18:48:29;;;;;;;124.78;28.02;;;;;;;-1.36;100.00;102867.03;4976403;28;20046;-83
2023/01/25 18:50:59;;;;;;;128.80;28.50;;;;;;;-1.33;100.00;102882.50;4976652;28;20125;-83
2023/01/25 18:53:25;;;;;;;130.85;28.98;;;;;;;-1.36;100.00;102856.88;4958465;28;20136;-83
2023/01/25 18:56:06;;;;;;;121.80;27.10;;;;;;;-1.36;100.00;102851.78;5000077;23;20100;-96
2023/01/25 18:58:41;;;;;;;132.77;29.00;;;;;;;-1.45;100.00;102826.72;5001874;28;20042;-96
2023/01/25 19:01:22;;;;;;;128.23;29.65;;;;;;;-1.48;100.00;102815.50;5006258;28;20037;-96
2023/01/25 19:04:03;;;;;;;136.00;30.25;;;;;;;-1.39;100.00;102806.72;5005425;28;20038;-96
2023/01/25 19:06:33;;;;;;;133.07;28.80;;;;;;;-1.38;100.00;102813.56;5008359;28;20038;-95
2023/01/25 19:11:58;;;;;;;138.38;31.05;;;;;;;-1.30;100.00;102832.69;5008919;28;20073;-96
2023/01/25 19:15:11;;;;;;;135.23;29.85;;;;;;;-1.47;100.00;102807.06;5002206;28;20380;-95
2023/01/25 19:17:48;;;;;;;139.93;28.45;;;;;;;-1.37;100.00;102834.78;4990400;28;20046;-96
2023/01/25 19:20:32;;;;;;;127.80;28.52;;;;;;;-1.38;100.00;102827.94;4992698;28;20042;-96
2023/01/25 19:23:03;;;;;;;123.28;28.50;;;;;;;-1.55;100.00;102795.59;5008630;28;20380;-95
2023/01/25 19:25:47;;;;;;;124.93;27.88;;;;;;;-1.48;100.00;102812.94;4991257;28;20040;-96
2023/01/25 19:28:13;;;;;;;125.40;27.48;;;;;;;-1.54;100.00;102805.84;4989471;28;20105;-96
2023/01/25 19:30:41;;;;;;;151.27;34.42;;;;;;;-1.57;100.00;102787.03;4991142;28;20044;-96
2023/01/25 19:33:24;;;;;;;153.70;35.50;;;;;;;-1.48;100.00;102796.03;4986221;28;20065;-96
2023/01/25 19:36:03;;;;;;;146.10;34.58;;;;;;;-1.37;100.00;102802.63;4990420;28;20048;-96
2023/01/25 19:38:38;;;;;;;133.40;30.23;;;;;;;-1.35;100.00;102803.56;4985569;28;20125;-96
2023/01/25 19:41:08;;;;;;;121.75;29.10;;;;;;;-1.51;100.00;102777.19;4991340;28;20038;-96
2023/01/25 19:43:34;;;;;;;125.25;29.27;;;;;;;-1.45;100.00;102782.63;4996363;28;20083;-96
2023/01/25 19:46:25;;;;;;;126.72;30.42;;;;;;;-1.48;100.00;102774.81;4991139;28;20037;-96
2023/01/25 19:49:03;;;;;;;133.00;30.52;;;;;;;-1.49;100.00;102773.91;4984593;28;20038;-96
2023/01/25 19:52:10;;;;;;;135.25;29.92;;;;;;;-1.36;100.00;102791.63;4996769;28;20094;-96
2023/01/25 19:54:36;;;;;;;143.77;37.63;;;;;;;-1.40;100.00;102776.13;5001063;28;20069;-96
2023/01/25 19:57:18;;;;;;;;;;;;;;;;;;;;;
2023/01/25 19:59:50;;;;;;;132.07;29.98;;;;;;;-1.41;100.00;102784.53;4992082;28;20070;-96
2023/01/25 20:02:16;;;;;;;133.52;31.13;;;;;;;-1.41;100.00;102787.94;4994185;28;20512;-96
2023/01/25 20:05:00;;;;;;;149.98;34.08;;;;;;;-1.40;100.00;102792.25;4989189;28;20031;-96
2023/01/25 20:07:43;;;;;;;133.38;31.02;;;;;;;-1.37;100.00;102784.81;4991562;28;20034;-96
2023/01/25 20:10:37;;;;;;;;;;;;;;;;;;;;;
2023/01/25 20:13:19;;;;;;;144.43;40.77;;;;;;;-1.46;100.00;102743.59;4999894;28;20054;-96
2023/01/25 20:16:12;;;;;;;129.77;29.63;;;;;;;-1.46;100.00;102743.59;5001049;28;20293;-96
2023/01/25 20:18:55;;;;;;;155.73;43.60;;;;;;;-1.42;100.00;102745.50;4999296;28;20034;-96
2023/01/25 20:21:25;;;;;;;128.23;29.48;;;;;;;-1.43;100.00;102743.75;4994965;28;20043;-96
2023/01/25 20:24:18;;;;;;;123.72;30.42;;;;;;;-1.42;100.00;102731.91;4992695;28;20073;-96
2023/01/25 20:26:48;;;;;;;184.73;52.97;;;;;;;-1.37;100.00;102735.59;4990081;28;20348;-96
2023/01/25 20:29:34;;;;;;;;;;;;;;;;;;;;;
2023/01/25 20:32:07;;;;;;;126.13;31.17;;;;;;;-1.38;100.00;102728.75;4986296;28;20062;-96
2023/01/25 20:34:42;;;;;;;152.70;42.22;;;;;;;-1.24;100.00;102746.53;4996435;28;20046;-96
2023/01/25 20:37:28;;;;;;;;;;;;;;;-1.19;100.00;102741.69;4991769;28;20129;-96
2023/01/25 20:39:58;;;;;;;127.72;28.65;;;;;;;-1.20;100.00;102733.19;4983767;28;19914;-96
2023/01/25 20:43:00;;;;;;;161.63;49.20;;;;;;;-1.19;100.00;102731.50;4994651;28;20094;-96
2023/01/25 20:45:28;;;;;;;153.75;41.58;;;;;;;-1.34;100.00;102711.19;5002829;28;20695;-96
2023/01/25 20:48:01;;;;;;;189.15;56.80;;;;;;;-1.21;100.00;102739.06;5000158;28;20038;-96
2023/01/25 20:50:40;;;;;;;;;;;;;;;;;;;;;
2023/01/25 20:53:28;;;;;;;125.10;27.88;;;;;;;-1.32;100.00;102704.53;4990580;28;20055;-96
2023/01/25 20:56:01;;;;;;;129.50;29.23;;;;;;;-1.42;100.00;102683.59;4984151;28;20463;-96
2023/01/25 20:58:49;;;;;;;138.45;30.08;;;;;;;-1.26;100.00;102709.06;4990464;28;20038;-96
2023/01/25 21:01:23;;;;;;;119.13;28.05;;;;;;;-1.36;100.00;102697.50;4987744;28;20034;-96
2023/01/25 21:04:03;;;;;;;;;;;;;;;-1.23;100.00;102719.44;4988380;28;20038;-96
2023/01/25 21:06:33;;;;;;;127.45;28.77;;;;;;;-1.35;100.00;102704.34;4994700;28;19960;-96
2023/01/25 21:09:05;;;;;;;127.45;27.95;;;;;;;-1.40;100.00;102693.06;4987729;28;20043;-96
2023/01/25 21:12:04;;;;;;;127.15;28.15;;;;;;;-1.43;100.00;102686.97;4989121;28;20047;-96
2023/01/25 21:14:45;;;;;;;127.35;29.98;;;;;;;-1.27;100.00;102712.41;4993439;28;20042;-96
2023/01/25 21:17:25;;;;;;;131.88;30.23;;;;;;;-1.42;100.00;102673.41;4983199;28;20046;-96
2023/01/25 21:23:02;;;;;;;129.15;29.20;;;;;;;-1.32;100.00;102683.31;4985186;28;20049;-96
2023/01/25 21:25:37;;;;;;;147.77;36.22;;;;;;;-1.29;100.00;102691.97;4968750;28;20055;-96
2023/01/25 21:28:08;;;;;;;;;;;;;;;-1.28;100.00;102688.63;4967087;28;20114;-96
2023/01/25 21:31:21;;;;;;;126.00;29.65;;;;;;;-1.37;100.00;102682.19;4969060;28;19919;-96
2023/01/25 21:33:43;;;;;;;133.30;30.48;;;;;;;-1.46;100.00;102657.13;4967082;28;20095;-96
2023/01/25 21:36:22;;;;;;;142.10;31.80;;;;;;;-1.50;100.00;102667.91;4950516;29;20105;-96
2023/01/25 21:38:58;;;;;;;129.02;30.50;;;;;;;-1.47;100.00;102668.09;4966261;28;20070;-96
2023/01/25 21:47:16;;;;;;;137.40;31.13;;;;;;;-1.47;100.00;102669.75;4974569;28;20047;-96
2023/01/25 21:52:35;;;;;;;137.45;28.60;;;;;;;-1.56;100.00;102634.53;4968515;28;20049;-96
2023/01/25 21:55:01;;;;;;;130.32;30.70;;;;;;;-1.51;100.00;102644.97;4952423;29;20047;-96
2023/01/25 21:57:45;;;;;;;138.82;29.55;;;;;;;-1.57;100.00;102634.47;4982060;28;20046;-96
2023/01/25 22:00:25;;;;;;;136.50;30.30;;;;;;;-1.53;100.00;102649.09;4992186;28;20089;-96
2023/01/25 22:02:51;;;;;;;171.75;45.78;;;;;;;-1.58;100.00;102651.41;4985504;28;20290;-96
2023/01/25 22:05:33;;;;;;;180.77;54.13;;;;;;;-1.58;100.00;102647.97;4989272;28;20046;-96
2023/01/25 22:08:01;;;;;;;140.23;31.60;;;;;;;-1.60;100.00;102640.25;4989112;28;20039;-96
2023/01/25 22:10:42;;;;;;;;;;;;;;;;;;;;;
2023/01/25 22:13:14;;;;;;;133.00;31.67;;;;;;;-1.57;100.00;102637.91;4986233;28;20459;-96
2023/01/25 22:15:39;;;;;;;133.32;29.23;;;;;;;-1.56;100.00;102638.75;4986670;28;20070;-96
2023/01/25 22:18:05;;;;;;;131.20;30.30;;;;;;;-1.62;100.00;102639.28;4984797;28;20494;-96
2023/01/25 22:20:33;;;;;;;136.70;31.75;;;;;;;-1.50;100.00;102672.16;4981916;28;20164;-96
2023/01/25 22:23:01;;;;;;;126.88;28.45;;;;;;;-1.64;100.00;102643.44;4990842;28;20113;-96
2023/01/25 22:25:42;;;;;;;136.20;31.13;;;;;;;-1.64;100.00;102651.06;4985458;28;20035;-96
2023/01/25 22:28:18;;;;;;;157.75;34.97;;;;;;;-1.64;100.00;102649.38;4986223;28;20402;-96
2023/01/25 22:30:55;;;;;;;156.98;36.78;;;;;;;-1.65;100.00;102637.47;4984104;28;20034;-96
2023/01/25 22:33:21;;;;;;;173.75;39.25;;;;;;;-1.61;100.00;102654.63;4983883;28;20031;-96
2023/01/25 22:36:02;;;;;;;129.45;29.92;;;;;;;-1.63;100.00;102652.78;4982075;28;20070;-96